Time;durP1;ratioP1;P1;durP2;ratioP2;P2;SDS_P1;SDS_P2;PMS_P1;PMS_P2;Temp;Humidity;BMP_temperature;BMP_pressure;BME280_temperature;BME280_humidity;BME280_pressure;Samples;Min_cycle;Max_cycle;Signal;HPM_P1;HPM_P2
2023/01/03 00:00:46;;;;;;;;;0.00;0.00;;;;;;;;5205307;28;8780;-72
2023/01/03 00:03:17;;;;;;;;;1.00;1.00;;;;;;;;5204850;28;9111;-72
2023/01/03 00:06:14;;;;;;;;;0.20;0.20;;;;;;;;5205661;28;8772;-72
2023/01/03 00:08:45;;;;;;;;;0.00;0.00;;;;;;;;5204533;28;8820;-72
2023/01/03 00:11:18;;;;;;;;;0.60;0.60;;;;;;;;5205496;28;8788;-72
2023/01/03 00:13:49;;;;;;;;;1.00;1.00;;;;;;;;5204298;28;8796;-72
2023/01/03 00:16:19;;;;;;;;;0.00;0.00;;;;;;;;5205257;28;8812;-72
2023/01/03 00:18:50;;;;;;;;;0.00;0.00;;;;;;;;5205500;28;11405;-72
2023/01/03 00:21:21;;;;;;;;;0.25;0.25;;;;;;;;5205750;28;8835;-73
2023/01/03 00:23:53;;;;;;;;;0.00;0.00;;;;;;;;5204944;28;8833;-74
2023/01/03 00:26:23;;;;;;;;;0.00;0.00;;;;;;;;5206014;28;9136;-74
2023/01/03 00:28:54;;;;;;;;;1.00;1.00;;;;;;;;5205795;28;8780;-74
2023/01/03 00:31:25;;;;;;;;;0.00;0.00;;;;;;;;5205296;28;11441;-74
2023/01/03 00:33:56;;;;;;;;;4.80;4.80;;;;;;;;5205857;28;8804;-74
2023/01/03 00:36:27;;;;;;;;;2.80;2.40;;;;;;;;5190222;28;9472;-74
2023/01/03 00:38:58;;;;;;;;;24.00;23.00;;;;;;;;5211451;28;8789;-74
2023/01/03 00:41:47;;;;;;;;;5.80;5.00;;;;;;;;5212632;28;11507;-74
2023/01/03 00:44:18;;;;;;;;;1.00;1.00;;;;;;;;5207614;28;8796;-73
2023/01/03 00:46:49;;;;;;;;;10.50;10.50;;;;;;;;5204198;28;8897;-72
2023/01/03 00:49:38;;;;;;;;;0.40;0.40;;;;;;;;5189957;28;11479;-73
2023/01/03 00:52:09;;;;;;;;;3.60;3.60;;;;;;;;5205026;28;8807;-73
2023/01/03 00:54:40;;;;;;;;;6.50;6.50;;;;;;;;5187425;28;8784;-75
2023/01/03 00:57:11;;;;;;;;;1.00;1.00;;;;;;;;5205035;28;8836;-75
2023/01/03 00:59:42;;;;;;;;;2.00;2.00;;;;;;;;5187617;28;8866;-76
2023/01/03 01:02:13;;;;;;;;;1.00;1.00;;;;;;;;5206272;28;8812;-74
2023/01/03 01:05:03;;;;;;;;;11.00;11.00;;;;;;;;5206061;28;9091;-75
2023/01/03 01:07:34;;;;;;;;;0.00;0.00;;;;;;;;5171805;28;9517;-75
2023/01/03 01:10:05;;;;;;;;;7.00;7.00;;;;;;;;5187288;28;8800;-74
2023/01/03 01:12:55;;;;;;;;;0.00;0.00;;;;;;;;5205424;28;11540;-76
2023/01/03 01:15:27;;;;;;;;;0.80;0.80;;;;;;;;5203553;28;8816;-74
2023/01/03 01:17:57;;;;;;;;;0.00;0.00;;;;;;;;5187368;28;8844;-73
2023/01/03 01:20:28;;;;;;;;;0.25;0.25;;;;;;;;5203870;28;11518;-73
2023/01/03 01:22:59;;;;;;;;;2.00;2.00;;;;;;;;5203864;28;11411;-74
2023/01/03 01:25:33;;;;;;;;;15.60;15.60;;;;;;;;5204614;28;8796;-73
2023/01/03 01:28:04;;;;;;;;;4.00;4.00;;;;;;;;5203733;28;8820;-73
2023/01/03 01:30:36;;;;;;;;;18.20;18.20;;;;;;;;5204772;28;8780;-73
2023/01/03 01:33:07;;;;;;;;;18.20;18.20;;;;;;;;5207249;28;8792;-73
2023/01/03 01:35:38;;;;;;;;;27.00;27.00;;;;;;;;5208031;28;8819;-73
2023/01/03 01:38:09;;;;;;;;;7.00;7.00;;;;;;;;5207073;28;11528;-74
2023/01/03 01:40:40;;;;;;;;;12.80;12.80;;;;;;;;5209512;28;8807;-73
2023/01/03 01:46:23;;;;;;;;;8.40;8.40;;;;;;;;5190792;28;8773;-74
2023/01/03 01:48:56;;;;;;;;;8.00;8.00;;;;;;;;5190859;28;8799;-72
2023/01/03 01:51:29;;;;;;;;;0.00;0.00;;;;;;;;5190772;28;8815;-74
2023/01/03 01:54:01;;;;;;;;;2.00;2.00;;;;;;;;5190750;28;8939;-74
2023/01/03 01:56:35;;;;;;;;;0.00;0.00;;;;;;;;5207693;28;8808;-74
2023/01/03 01:59:27;;;;;;;;;0.60;0.60;;;;;;;;5208094;28;8768;-72
2023/01/03 02:01:58;;;;;;;;;0.40;0.40;;;;;;;;5224428;28;8780;-73
2023/01/03 02:04:50;;;;;;;;;0.00;0.00;;;;;;;;5207473;28;8784;-72
2023/01/03 02:07:21;;;;;;;;;2.00;2.00;;;;;;;;5207825;28;9495;-72
2023/01/03 02:09:56;;;;;;;;;1.00;1.00;;;;;;;;5223368;28;8919;-72
2023/01/03 02:15:38;;;;;;;;;6.80;6.40;;;;;;;;5206360;28;8800;-72
2023/01/03 02:18:12;;;;;;;;;9.40;9.40;;;;;;;;5208060;28;8803;-73
2023/01/03 02:21:05;;;;;;;;;0.00;0.00;;;;;;;;5192796;28;8816;-73
2023/01/03 02:24:05;;;;;;;;;7.00;7.00;;;;;;;;5220728;28;9637;-73
2023/01/03 02:26:43;;;;;;;;;6.00;6.00;;;;;;;;5190118;28;8780;-72
2023/01/03 02:29:35;;;;;;;;;33.80;33.60;;;;;;;;5207858;28;8768;-73
2023/01/03 02:32:12;;;;;;;;;6.80;6.80;;;;;;;;5207893;28;8780;-73
2023/01/03 02:35:22;;;;;;;;;4.20;4.20;;;;;;;;5207543;28;8780;-73
2023/01/03 02:37:53;;;;;;;;;6.00;6.00;;;;;;;;5207473;28;8792;-73
2023/01/03 02:40:45;;;;;;;;;3.20;3.20;;;;;;;;5206044;28;8769;-72
2023/01/03 02:43:16;;;;;;;;;31.00;29.00;;;;;;;;5188722;28;8806;-72
2023/01/03 02:46:08;;;;;;;;;3.00;2.20;;;;;;;;5206163;28;8789;-72
2023/01/03 02:48:42;;;;;;;;;3.60;3.60;;;;;;;;5206177;28;8815;-73
2023/01/03 02:51:39;;;;;;;;;1.00;1.00;;;;;;;;5207002;28;8769;-74
2023/01/03 02:54:13;;;;;;;;;14.60;14.60;;;;;;;;5202048;28;9500;-74
2023/01/03 02:56:50;;;;;;;;;2.40;2.40;;;;;;;;5189373;28;8776;-74
2023/01/03 02:59:29;;;;;;;;;3.00;3.00;;;;;;;;5173096;28;8795;-72
2023/01/03 03:02:01;;;;;;;;;10.40;9.60;;;;;;;;5173480;28;8792;-73
2023/01/03 03:04:34;;;;;;;;;1.00;1.00;;;;;;;;5205902;28;8796;-73
2023/01/03 03:07:13;;;;;;;;;5.00;5.00;;;;;;;;5204902;28;9585;-72
2023/01/03 03:13:14;;;;;;;;;8.60;8.60;;;;;;;;5205804;28;8784;-72
2023/01/03 03:15:50;;;;;;;;;1.00;1.00;;;;;;;;5222197;28;8939;-72
2023/01/03 03:18:27;;;;;;;;;5.40;5.40;;;;;;;;5206902;28;8804;-73
2023/01/03 03:24:48;;;;;;;;;3.00;3.00;;;;;;;;5206703;28;8796;-72
2023/01/03 03:28:33;;;;;;;;;1.00;1.00;;;;;;;;5205724;28;8816;-73
2023/01/03 03:30:19;;;;;;;;;4.00;4.00;;;;;;;;5206760;28;8769;-73
2023/01/03 03:33:10;;;;;;;;;1.80;1.80;;;;;;;;5219248;28;8768;-74
2023/01/03 03:35:59;;;;;;;;;0.20;0.20;;;;;;;;5188472;28;8815;-78
2023/01/03 03:38:48;;;;;;;;;3.80;3.80;;;;;;;;5205733;28;8806;-74
2023/01/03 03:47:13;;;;;;;;;5.00;5.00;;;;;;;;5205484;28;8847;-74
2023/01/03 03:49:45;;;;;;;;;4.00;4.00;;;;;;;;5221994;28;9586;-74
2023/01/03 03:52:18;;;;;;;;;3.00;3.00;;;;;;;;5205091;28;8797;-74
2023/01/03 03:54:52;;;;;;;;;4.00;4.00;;;;;;;;5205732;28;8923;-74
2023/01/03 03:57:26;;;;;;;;;3.20;3.20;;;;;;;;5221288;28;8914;-74
2023/01/03 04:00:01;;;;;;;;;1.00;1.00;;;;;;;;5206127;28;8802;-74
2023/01/03 04:02:35;;;;;;;;;5.60;5.60;;;;;;;;5204871;28;8823;-74
2023/01/03 04:05:08;;;;;;;;;3.00;2.60;;;;;;;;5205533;28;8906;-73
2023/01/03 04:07:39;;;;;;;;;2.20;2.20;;;;;;;;5204252;28;8885;-74
2023/01/03 04:10:11;;;;;;;;;8.20;8.20;;;;;;;;5205988;28;9587;-74
2023/01/03 04:12:43;;;;;;;;;7.20;7.20;;;;;;;;5205307;28;8812;-73
2023/01/03 04:15:14;;;;;;;;;6.40;6.40;;;;;;;;5222801;28;8800;-74
2023/01/03 04:17:45;;;;;;;;;7.00;7.00;;;;;;;;5205411;28;9550;-73
2023/01/03 04:20:17;;;;;;;;;4.00;4.00;;;;;;;;5204312;28;8859;-73
2023/01/03 04:22:48;;;;;;;;;3.20;1.40;;;;;;;;5188126;28;8788;-72
2023/01/03 04:25:19;;;;;;;;;11.60;11.60;;;;;;;;5205374;28;8776;-72
2023/01/03 04:28:09;;;;;;;;;3.40;3.40;;;;;;;;5205651;28;8827;-72
2023/01/03 04:30:40;;;;;;;;;3.80;3.80;;;;;;;;5206001;28;8788;-72
2023/01/03 04:33:11;;;;;;;;;4.00;4.00;;;;;;;;5204524;28;9484;-72
2023/01/03 04:35:42;;;;;;;;;3.75;3.75;;;;;;;;5187987;28;8791;-72
2023/01/03 04:38:31;;;;;;;;;2.80;2.80;;;;;;;;5218822;28;11510;-72
2023/01/03 04:41:03;;;;;;;;;5.20;5.20;;;;;;;;5205054;28;8788;-72
2023/01/03 04:46:24;;;;;;;;;6.00;6.00;;;;;;;;5205539;28;8792;-73
2023/01/03 04:48:55;;;;;;;;;6.20;6.20;;;;;;;;5187943;28;8808;-73
2023/01/03 04:51:26;;;;;;;;;4.40;4.40;;;;;;;;5204111;28;8932;-72
2023/01/03 04:53:57;;;;;;;;;7.40;6.80;;;;;;;;5188006;28;8799;-72
2023/01/03 04:56:47;;;;;;;;;8.60;8.60;;;;;;;;5204800;28;8769;-73
2023/01/03 04:59:18;;;;;;;;;1.00;1.00;;;;;;;;5187370;28;8807;-73
2023/01/03 05:06:13;;;;;;;;;3.00;2.60;;;;;;;;5207242;28;11540;-71
2023/01/03 05:08:46;;;;;;;;;0.25;0.25;;;;;;;;5209422;28;8808;-72
2023/01/03 05:11:17;;;;;;;;;3.20;3.00;;;;;;;;5191285;28;9643;-72
2023/01/03 05:14:08;;;;;;;;;5.20;5.20;;;;;;;;5208332;28;8800;-72
2023/01/03 05:16:38;;;;;;;;;7.00;7.00;;;;;;;;5208877;28;8808;-72
2023/01/03 05:19:09;;;;;;;;;6.75;6.75;;;;;;;;5208682;28;8788;-69
2023/01/03 05:27:22;;;;;;;;;6.00;6.00;;;;;;;;5187263;28;8820;-71
2023/01/03 05:29:54;;;;;;;;;9.80;7.80;;;;;;;;5208020;28;8788;-69
2023/01/03 05:32:43;;;;;;;;;17.60;13.80;;;;;;;;5209327;28;8777;-69
2023/01/03 05:35:14;;;;;;;;;7.40;7.00;;;;;;;;5191320;28;8814;-68
2023/01/03 05:37:45;;;;;;;;;1.00;1.00;;;;;;;;5207178;28;8812;-69
2023/01/03 05:40:16;;;;;;;;;4.40;3.40;;;;;;;;5207359;28;9259;-69
2023/01/03 05:42:47;;;;;;;;;12.50;12.50;;;;;;;;5207171;28;8815;-69
2023/01/03 05:45:24;;;;;;;;;9.25;9.25;;;;;;;;5207362;28;8800;-70
2023/01/03 05:47:58;;;;;;;;;9.20;9.20;;;;;;;;5207445;28;11504;-70
2023/01/03 05:50:29;;;;;;;;;3.20;3.20;;;;;;;;5206985;28;8780;-68
2023/01/03 05:53:00;;;;;;;;;6.00;5.50;;;;;;;;5223379;28;8789;-67
2023/01/03 05:55:49;;;;;;;;;8.20;8.20;;;;;;;;5207080;28;11380;-68
2023/01/03 05:58:20;;;;;;;;;7.40;7.40;;;;;;;;5208433;28;8867;-67
2023/01/03 06:00:51;;;;;;;;;12.75;12.75;;;;;;;;5208087;28;8788;-69
2023/01/03 06:03:22;;;;;;;;;6.50;6.50;;;;;;;;5207885;28;8852;-68
2023/01/03 06:06:12;;;;;;;;;16.20;16.20;;;;;;;;5208416;28;10947;-69
2023/01/03 06:08:43;;;;;;;;;6.20;6.20;;;;;;;;5174164;28;9002;-69
2023/01/03 06:11:15;;;;;;;;;15.80;14.00;;;;;;;;5207559;28;8788;-69
2023/01/03 06:13:46;;;;;;;;;4.40;4.40;;;;;;;;5206598;28;8788;-69
2023/01/03 06:24:40;;;;;;;;;16.40;16.00;;;;;;;;5189853;28;8804;-70
2023/01/03 06:31:35;;;;;;;;;18.40;18.40;;;;;;;;5207423;28;10203;-68
2023/01/03 06:34:06;;;;;;;;;8.60;6.60;;;;;;;;5207760;28;8767;-69
2023/01/03 06:36:38;;;;;;;;;2.60;1.00;;;;;;;;5207889;28;8905;-69
2023/01/03 06:39:09;;;;;;;;;3.20;3.20;;;;;;;;5173325;28;8889;-70
2023/01/03 06:41:58;;;;;;;;;16.00;16.00;;;;;;;;5189944;28;8778;-70
2023/01/03 06:44:29;;;;;;;;;6.20;4.40;;;;;;;;5174035;28;9473;-70
2023/01/03 07:02:23;;;;;;;;;10.40;10.40;;;;;;;;5205296;28;8810;-69
2023/01/03 07:04:54;;;;;;;;;0.00;0.00;;;;;;;;5207599;28;9542;-69
2023/01/03 07:07:25;;;;;;;;;9.00;9.00;;;;;;;;5211059;28;8818;-69
2023/01/03 07:09:56;;;;;;;;;1.00;1.00;;;;;;;;5195670;28;8786;-69
2023/01/03 07:15:24;;;;;;;;;9.40;9.40;;;;;;;;5206277;28;8795;-71
2023/01/03 07:17:59;;;;;;;;;1.00;1.00;;;;;;;;5174333;28;9442;-70
2023/01/03 07:20:33;;;;;;;;;7.80;7.80;;;;;;;;5168435;28;9589;-68
2023/01/03 07:23:22;;;;;;;;;4.00;4.00;;;;;;;;5169010;28;8767;-69
2023/01/03 07:25:57;;;;;;;;;4.80;4.80;;;;;;;;5186799;28;8852;-70
2023/01/03 07:28:28;;;;;;;;;4.00;4.00;;;;;;;;5168624;28;8811;-69
2023/01/03 07:31:01;;;;;;;;;7.80;7.40;;;;;;;;5153427;28;8806;-68
2023/01/03 07:33:33;;;;;;;;;6.20;6.00;;;;;;;;5152072;28;8806;-69
2023/01/03 07:36:05;;;;;;;;;6.00;5.60;;;;;;;;5168496;28;8901;-69
2023/01/03 07:38:39;;;;;;;;;1.40;1.40;;;;;;;;5168231;28;8795;-69
2023/01/03 07:41:14;;;;;;;;;1.40;1.40;;;;;;;;5167897;28;8826;-68
2023/01/03 07:43:47;;;;;;;;;4.80;4.80;;;;;;;;5152249;28;8767;-69
2023/01/03 07:46:22;;;;;;;;;3.20;3.20;;;;;;;;5185597;28;8822;-70
2023/01/03 07:48:56;;;;;;;;;2.20;2.20;;;;;;;;5184473;28;8814;-69
2023/01/03 07:51:27;;;;;;;;;1.00;1.00;;;;;;;;5168114;28;8771;-69
2023/01/03 07:54:17;;;;;;;;;1.40;1.40;;;;;;;;5168662;28;8756;-69
2023/01/03 07:56:47;;;;;;;;;8.60;7.40;;;;;;;;5167816;28;8915;-69
2023/01/03 07:59:19;;;;;;;;;5.00;5.00;;;;;;;;5183956;28;8885;-69
2023/01/03 08:01:50;;;;;;;;;3.60;3.60;;;;;;;;5167743;28;10671;-68
2023/01/03 08:04:21;;;;;;;;;4.40;4.40;;;;;;;;5185385;28;8771;-70
2023/01/03 08:06:54;;;;;;;;;3.20;3.20;;;;;;;;5184768;28;8787;-70
2023/01/03 08:15:04;;;;;;;;;1.00;1.00;;;;;;;;5183954;28;8825;-69
2023/01/03 08:17:35;;;;;;;;;4.00;4.00;;;;;;;;5151294;28;8803;-68
2023/01/03 08:20:25;;;;;;;;;5.20;4.00;;;;;;;;5186304;28;8792;-68
2023/01/03 08:22:58;;;;;;;;;6.40;6.40;;;;;;;;5204552;28;8930;-69
2023/01/03 08:25:29;;;;;;;;;8.80;8.80;;;;;;;;5204930;28;8765;-69
2023/01/03 08:28:18;;;;;;;;;5.80;5.60;;;;;;;;5205300;28;8804;-68
2023/01/03 08:30:49;;;;;;;;;2.00;2.00;;;;;;;;5205276;28;8792;-68
2023/01/03 08:33:20;;;;;;;;;2.20;2.20;;;;;;;;5204522;28;10177;-68
2023/01/03 08:35:54;;;;;;;;;0.20;0.20;;;;;;;;5187798;28;8804;-69
2023/01/03 08:38:34;;;;;;;;;0.60;0.60;;;;;;;;5203818;28;8877;-70
2023/01/03 08:41:07;;;;;;;;;3.20;3.20;;;;;;;;5206117;28;8781;-70
2023/01/03 08:43:40;;;;;;;;;4.00;4.00;;;;;;;;5204886;28;8986;-69
2023/01/03 08:46:11;;;;;;;;;7.80;7.20;;;;;;;;5187842;28;8781;-70
2023/01/03 08:48:42;;;;;;;;;4.00;4.00;;;;;;;;5204773;28;9490;-69
2023/01/03 08:51:13;;;;;;;;;6.40;5.20;;;;;;;;5204154;28;8824;-70
2023/01/03 08:53:44;;;;;;;;;0.75;0.75;;;;;;;;5203975;28;8789;-70
2023/01/03 08:56:17;;;;;;;;;9.25;9.25;;;;;;;;5204867;28;11611;-69
2023/01/03 08:58:48;;;;;;;;;6.80;6.80;;;;;;;;5187305;28;8825;-69
2023/01/03 09:01:19;;;;;;;;;4.50;4.50;;;;;;;;5204904;28;8792;-69
2023/01/03 09:04:09;;;;;;;;;15.00;12.40;;;;;;;;5205146;28;8788;-69
2023/01/03 09:06:40;;;;;;;;;0.75;0.75;;;;;;;;5203850;28;8793;-68
2023/01/03 09:09:11;;;;;;;;;7.00;6.75;;;;;;;;5203454;28;10280;-70
2023/01/03 09:11:42;;;;;;;;;10.50;10.50;;;;;;;;5203443;28;8807;-70
2023/01/03 09:14:13;;;;;;;;;6.50;6.50;;;;;;;;5203469;28;11911;-69
2023/01/03 09:16:44;;;;;;;;;0.00;0.00;;;;;;;;5187239;28;9006;-69
2023/01/03 09:19:15;;;;;;;;;6.20;5.20;;;;;;;;5220103;28;8839;-69
2023/01/03 09:22:05;;;;;;;;;8.80;8.60;;;;;;;;5204268;28;9484;-69
2023/01/03 09:24:36;;;;;;;;;1.50;1.50;;;;;;;;5203987;28;8796;-70
2023/01/03 09:27:09;;;;;;;;;4.00;4.00;;;;;;;;5203331;28;9541;-69
2023/01/03 09:29:40;;;;;;;;;1.00;1.00;;;;;;;;5186947;28;8797;-69
2023/01/03 09:32:11;;;;;;;;;3.00;1.00;;;;;;;;5203274;28;8808;-68
2023/01/03 09:34:42;;;;;;;;;7.00;6.75;;;;;;;;5203886;28;8915;-68
2023/01/03 09:37:13;;;;;;;;;2.50;2.50;;;;;;;;5220135;28;11640;-69
2023/01/03 09:39:44;;;;;;;;;2.20;2.20;;;;;;;;5203899;28;11442;-69
2023/01/03 09:45:28;;;;;;;;;5.20;4.00;;;;;;;;5205077;28;8780;-68
2023/01/03 09:48:00;;;;;;;;;9.40;9.40;;;;;;;;5204244;28;8820;-72
2023/01/03 09:50:49;;;;;;;;;8.20;7.00;;;;;;;;5190052;28;8765;-68
2023/01/03 10:05:36;;;;;;;;;6.80;6.20;;;;;;;;5207997;28;8780;-69
2023/01/03 10:08:21;;;;;;;;;16.00;16.00;;;;;;;;5222965;28;8808;-69
2023/01/03 10:11:03;;;;;;;;;10.00;10.00;;;;;;;;5206812;28;8899;-69
2023/01/03 10:13:34;;;;;;;;;10.00;10.00;;;;;;;;5174124;28;8792;-70
2023/01/03 10:16:32;;;;;;;;;12.50;11.00;;;;;;;;5206807;28;9492;-68
2023/01/03 10:19:06;;;;;;;;;18.40;18.40;;;;;;;;5173528;28;11543;-69
2023/01/03 10:22:20;;;;;;;;;7.40;7.40;;;;;;;;5207498;28;8812;-69
2023/01/03 10:24:57;;;;;;;;;4.80;4.80;;;;;;;;5207818;28;8785;-69
2023/01/03 10:27:30;;;;;;;;;6.40;6.40;;;;;;;;5206737;28;8807;-69
2023/01/03 10:30:03;;;;;;;;;9.40;9.40;;;;;;;;5173504;28;8807;-69
2023/01/03 10:32:37;;;;;;;;;9.00;9.00;;;;;;;;5206140;28;8804;-68
2023/01/03 10:35:16;;;;;;;;;3.00;3.00;;;;;;;;5173278;28;8773;-68
2023/01/03 10:37:52;;;;;;;;;0.00;0.00;;;;;;;;5207036;28;8811;-69
2023/01/03 10:40:34;;;;;;;;;9.60;9.60;;;;;;;;5190320;28;8812;-68
2023/01/03 10:43:29;;;;;;;;;9.60;9.60;;;;;;;;5192471;28;8923;-68
2023/01/03 10:46:03;;;;;;;;;6.00;6.00;;;;;;;;5174851;28;8785;-69
2023/01/03 10:48:38;;;;;;;;;4.80;4.80;;;;;;;;5206400;28;8854;-69
2023/01/03 10:51:25;;;;;;;;;7.00;6.40;;;;;;;;5190341;28;8799;-69
2023/01/03 11:02:43;;;;;;;;;12.00;12.00;;;;;;;;5205715;28;8725;-68
2023/01/03 11:05:15;;;;;;;;;8.60;7.40;;;;;;;;5189198;28;8882;-69
2023/01/03 11:08:12;;;;;;;;;5.60;5.60;;;;;;;;5207249;28;8793;-69
2023/01/03 11:10:51;;;;;;;;;9.20;9.20;;;;;;;;5172657;28;8955;-67
2023/01/03 11:13:22;;;;;;;;;10.00;10.00;;;;;;;;5207587;28;8772;-68
2023/01/03 11:15:55;;;;;;;;;6.60;6.60;;;;;;;;5222043;28;8828;-69
2023/01/03 11:18:26;;;;;;;;;11.60;11.60;;;;;;;;5188452;28;8806;-70
2023/01/03 11:21:00;;;;;;;;;14.60;14.60;;;;;;;;5205309;28;8816;-69
2023/01/03 11:23:50;;;;;;;;;41.40;36.40;;;;;;;;5172598;28;8799;-69
2023/01/03 11:26:38;;;;;;;;;65.75;52.50;;;;;;;;5204531;28;8910;-69
2023/01/03 11:29:29;;;;;;;;;11.80;11.80;;;;;;;;5191071;28;8808;-69
2023/01/03 11:32:38;;;;;;;;;12.60;10.80;;;;;;;;5207046;28;8819;-69
2023/01/03 11:44:37;;;;;;;;;20.20;20.20;;;;;;;;5185343;28;8727;-69
2023/01/03 11:47:15;;;;;;;;;25.60;22.60;;;;;;;;5201261;28;9470;-67
2023/01/03 11:54:37;;;;;;;;;27.40;26.40;;;;;;;;5185391;28;8738;-68
2023/01/03 11:57:25;;;;;;;;;24.00;24.00;;;;;;;;5201242;28;8783;-68
2023/01/03 12:00:19;;;;;;;;;27.20;25.80;;;;;;;;5200572;28;9552;-68
2023/01/03 12:04:16;;;;;;;;;68.50;53.50;;;;;;;;5122636;28;8818;-68
2023/01/03 12:07:06;;;;;;;;;40.00;40.00;;;;;;;;5185054;28;8880;-68
2023/01/03 12:09:47;;;;;;;;;33.20;31.40;;;;;;;;5151507;28;8803;-68
2023/01/03 12:12:55;;;;;;;;;31.40;28.60;;;;;;;;5185136;28;8795;-68
2023/01/03 12:15:39;;;;;;;;;28.00;26.20;;;;;;;;5184336;28;8823;-68
2023/01/03 12:18:42;;;;;;;;;36.20;34.00;;;;;;;;5200980;28;8806;-68
2023/01/03 12:21:28;;;;;;;;;20.80;20.80;;;;;;;;5110229;28;8892;-68
2023/01/03 12:24:13;;;;;;;;;28.00;26.40;;;;;;;;5147334;28;8933;-68
2023/01/03 12:26:50;;;;;;;;;24.40;23.40;;;;;;;;5147966;28;8813;-68
2023/01/03 12:29:27;;;;;;;;;44.00;32.80;;;;;;;;5180241;28;8830;-69
2023/01/03 12:32:13;;;;;;;;;49.20;44.60;;;;;;;;5163774;28;8850;-69
2023/01/03 12:35:03;;;;;;;;;54.50;48.25;;;;;;;;5179841;28;8815;-69
2023/01/03 12:37:35;;;;;;;;;41.00;33.75;;;;;;;;5163742;28;8827;-69
2023/01/03 12:40:25;;;;;;;;;46.75;44.50;;;;;;;;5150359;28;8917;-69
2023/01/03 12:43:16;;;;;;;;;43.20;40.60;;;;;;;;5164499;28;8790;-69
2023/01/03 12:45:50;;;;;;;;;46.20;41.00;;;;;;;;5136848;28;8818;-70
2023/01/03 12:48:39;;;;;;;;;36.40;33.20;;;;;;;;5163452;28;8960;-68
2023/01/03 12:51:13;;;;;;;;;26.75;26.75;;;;;;;;5164819;28;8917;-69
2023/01/03 12:53:43;;;;;;;;;26.20;22.00;;;;;;;;5147439;28;8797;-69
2023/01/03 12:56:37;;;;;;;;;35.00;33.25;;;;;;;;5147258;28;8811;-68
2023/01/03 12:59:17;;;;;;;;;28.20;26.40;;;;;;;;5146987;28;8799;-69
2023/01/03 13:01:52;;;;;;;;;29.40;29.00;;;;;;;;5147752;28;8861;-69
2023/01/03 13:04:34;;;;;;;;;35.60;34.60;;;;;;;;5147752;28;8787;-69
2023/01/03 13:07:11;;;;;;;;;30.20;29.40;;;;;;;;5163118;28;9004;-68
2023/01/03 13:09:47;;;;;;;;;33.00;30.80;;;;;;;;5147260;28;8794;-69
2023/01/03 13:12:20;;;;;;;;;43.60;38.60;;;;;;;;5147332;28;8817;-68
2023/01/03 13:14:53;;;;;;;;;36.60;35.60;;;;;;;;5163458;28;9001;-68
2023/01/03 13:17:25;;;;;;;;;15.60;15.60;;;;;;;;5147087;28;8834;-68
2023/01/03 13:20:29;;;;;;;;;13.40;11.60;;;;;;;;5184316;28;8827;-69
2023/01/03 13:23:19;;;;;;;;;40.00;31.00;;;;;;;;5140810;28;8953;-69
2023/01/03 13:26:23;;;;;;;;;27.60;24.60;;;;;;;;5204576;28;9466;-69
2023/01/03 13:29:17;;;;;;;;;46.80;42.00;;;;;;;;5193199;28;8913;-69
2023/01/03 13:32:24;;;;;;;;;30.80;30.20;;;;;;;;5193968;28;8945;-70
2023/01/03 13:35:14;;;;;;;;;48.00;45.00;;;;;;;;5202016;28;8815;-71
2023/01/03 13:37:50;;;;;;;;;41.33;37.67;;;;;;;;5203428;28;8790;-71
2023/01/03 13:40:29;;;;;;;;;37.00;36.50;;;;;;;;5154673;28;8809;-69
2023/01/03 13:43:30;;;;;;;;;37.75;34.25;;;;;;;;5188086;28;8783;-68
2023/01/03 13:46:30;;;;;;;;;27.40;27.00;;;;;;;;5203652;28;8821;-68
2023/01/03 13:49:06;;;;;;;;;27.40;26.00;;;;;;;;5168737;28;8943;-69
2023/01/03 13:51:40;;;;;;;;;33.00;31.60;;;;;;;;5155308;28;8955;-68
2023/01/03 13:54:11;;;;;;;;;35.80;35.20;;;;;;;;5203145;28;8794;-69
2023/01/03 13:56:42;;;;;;;;;35.00;34.00;;;;;;;;5171216;28;8787;-70
2023/01/03 13:59:13;;;;;;;;;29.50;29.00;;;;;;;;5186652;28;8794;-69
2023/01/03 14:02:01;;;;;;;;;32.25;28.50;;;;;;;;5187934;28;11705;-68
2023/01/03 14:04:33;;;;;;;;;26.60;25.00;;;;;;;;5204118;28;8791;-69
2023/01/03 14:07:34;;;;;;;;;27.60;27.20;;;;;;;;5204460;28;9069;-70
2023/01/03 14:10:08;;;;;;;;;27.40;26.20;;;;;;;;5187252;28;8793;-69
2023/01/03 14:12:46;;;;;;;;;33.80;33.00;;;;;;;;5187604;28;8850;-68
2023/01/03 14:15:18;;;;;;;;;26.20;25.60;;;;;;;;5203278;28;8807;-69
2023/01/03 14:17:53;;;;;;;;;21.80;20.60;;;;;;;;5170471;28;8913;-70
2023/01/03 14:20:45;;;;;;;;;36.20;33.20;;;;;;;;5202690;28;8799;-70
2023/01/03 14:23:18;;;;;;;;;28.20;26.60;;;;;;;;5202486;28;8779;-71
2023/01/03 14:25:49;;;;;;;;;20.80;20.40;;;;;;;;5187307;28;8791;-68
2023/01/03 14:28:31;;;;;;;;;27.40;27.00;;;;;;;;5153717;28;8799;-68
2023/01/03 14:31:14;;;;;;;;;21.20;21.20;;;;;;;;5186259;28;9494;-69
2023/01/03 14:33:51;;;;;;;;;13.00;10.60;;;;;;;;5169137;28;8926;-68
2023/01/03 14:36:23;;;;;;;;;29.00;27.80;;;;;;;;5201980;28;8799;-69
2023/01/03 14:38:58;;;;;;;;;31.80;31.80;;;;;;;;5201841;28;8783;-69
2023/01/03 14:41:30;;;;;;;;;34.50;33.00;;;;;;;;5185675;28;8795;-69
2023/01/03 14:44:06;;;;;;;;;38.00;37.00;;;;;;;;5185396;28;8779;-69
2023/01/03 14:46:39;;;;;;;;;38.50;37.00;;;;;;;;5170008;28;8848;-68
2023/01/03 14:49:21;;;;;;;;;41.25;33.25;;;;;;;;5185696;28;8814;-68
2023/01/03 14:51:57;;;;;;;;;44.50;44.00;;;;;;;;5153442;28;8864;-68
2023/01/03 14:54:29;;;;;;;;;34.40;33.80;;;;;;;;5202444;28;9516;-68
2023/01/03 14:57:00;;;;;;;;;20.20;20.20;;;;;;;;5201676;28;8782;-68
2023/01/03 14:59:33;;;;;;;;;27.60;27.60;;;;;;;;5168964;28;8845;-69
2023/01/03 15:06:34;;;;;;;;;38.25;36.75;;;;;;;;5186280;28;8783;-68
2023/01/03 15:09:18;;;;;;;;;28.80;28.40;;;;;;;;5185346;28;8822;-68
2023/01/03 15:11:55;;;;;;;;;38.80;34.20;;;;;;;;5168852;28;8787;-69
2023/01/03 15:14:31;;;;;;;;;32.60;30.80;;;;;;;;5201469;28;8806;-70
2023/01/03 15:17:02;;;;;;;;;27.00;25.60;;;;;;;;5186045;28;8803;-69
2023/01/03 15:24:22;;;;;;;;;16.20;16.00;;;;;;;;5206382;28;8712;-68
2023/01/03 15:27:29;;;;;;;;;24.25;23.50;;;;;;;;5206385;28;8811;-68
2023/01/03 15:30:22;;;;;;;;;33.25;32.00;;;;;;;;5222356;28;8886;-68
2023/01/03 15:33:00;;;;;;;;;26.80;26.80;;;;;;;;5206703;28;8910;-69
2023/01/03 15:35:37;;;;;;;;;17.60;16.00;;;;;;;;5172482;28;8954;-68
2023/01/03 15:38:36;;;;;;;;;12.40;12.40;;;;;;;;5206126;28;8811;-68
2023/01/03 15:52:38;;;;;;;;;19.40;19.40;;;;;;;;5205838;28;8750;-69
2023/01/03 15:55:13;;;;;;;;;15.00;13.00;;;;;;;;5156323;28;8784;-69
2023/01/03 15:57:49;;;;;;;;;10.00;9.20;;;;;;;;5188611;28;9140;-68
2023/01/03 16:00:21;;;;;;;;;14.20;14.20;;;;;;;;5172626;28;8807;-69
2023/01/03 16:02:52;;;;;;;;;15.40;14.40;;;;;;;;5203888;28;8796;-70
2023/01/03 16:05:23;;;;;;;;;11.50;11.50;;;;;;;;5205300;28;8792;-69
2023/01/03 16:08:39;;;;;;;;;11.20;11.20;;;;;;;;5205339;28;11473;-69
2023/01/03 16:11:16;;;;;;;;;11.00;11.00;;;;;;;;5200608;28;8804;-69
2023/01/03 16:13:50;;;;;;;;;12.80;12.80;;;;;;;;5171666;28;8780;-69
2023/01/03 16:16:24;;;;;;;;;10.80;7.40;;;;;;;;5205706;28;8824;-69
2023/01/03 16:18:55;;;;;;;;;18.60;16.40;;;;;;;;5204369;28;8812;-70
2023/01/03 16:21:27;;;;;;;;;18.80;18.00;;;;;;;;5171719;28;8796;-68
2023/01/03 16:23:58;;;;;;;;;29.20;26.20;;;;;;;;5220743;28;8850;-69
2023/01/03 16:26:29;;;;;;;;;24.80;24.80;;;;;;;;5204204;28;8796;-68
2023/01/03 16:29:00;;;;;;;;;32.75;32.00;;;;;;;;5220520;28;8827;-69
2023/01/03 16:31:32;;;;;;;;;44.00;39.25;;;;;;;;5205124;28;11553;-69
2023/01/03 16:34:04;;;;;;;;;41.50;41.00;;;;;;;;5203834;28;8817;-69
2023/01/03 16:36:36;;;;;;;;;25.20;24.20;;;;;;;;5220831;28;8815;-70
2023/01/03 16:39:15;;;;;;;;;38.00;37.50;;;;;;;;5188065;28;8812;-69
2023/01/03 16:44:37;;;;;;;;;33.80;33.20;;;;;;;;5205298;28;8842;-69
2023/01/03 16:47:12;;;;;;;;;21.40;19.80;;;;;;;;5204338;28;8800;-69
2023/01/03 16:49:44;;;;;;;;;23.40;23.00;;;;;;;;5204720;28;8796;-69
2023/01/03 16:52:19;;;;;;;;;25.80;22.00;;;;;;;;5205431;28;8811;-69
2023/01/03 16:54:50;;;;;;;;;30.80;28.40;;;;;;;;5187091;28;8802;-69
2023/01/03 16:57:40;;;;;;;;;28.80;27.80;;;;;;;;5220984;28;8919;-70
2023/01/03 17:00:14;;;;;;;;;35.33;31.33;;;;;;;;5220612;28;9378;-70
2023/01/03 17:02:46;;;;;;;;;42.75;32.00;;;;;;;;5207127;28;8788;-68
2023/01/03 17:09:40;;;;;;;;;56.00;46.50;;;;;;;;5208895;28;8913;-69
2023/01/03 17:12:29;;;;;;;;;38.25;32.25;;;;;;;;5208109;28;9487;-69
2023/01/03 17:15:00;;;;;;;;;42.50;39.75;;;;;;;;5207803;28;8792;-70
2023/01/03 17:17:31;;;;;;;;;29.75;24.75;;;;;;;;5208704;28;8823;-67
2023/01/03 17:20:10;;;;;;;;;27.50;25.50;;;;;;;;5191207;28;8816;-67
2023/01/03 17:22:45;;;;;;;;;30.60;28.00;;;;;;;;5210398;28;8772;-69
2023/01/03 17:25:36;;;;;;;;;23.60;22.80;;;;;;;;5209329;28;8781;-68
2023/01/03 17:28:08;;;;;;;;;24.20;24.20;;;;;;;;5209149;28;8818;-68
2023/01/03 17:30:39;;;;;;;;;33.60;30.20;;;;;;;;5209285;28;8768;-68
2023/01/03 17:33:13;;;;;;;;;19.80;19.80;;;;;;;;5207454;28;8768;-68
2023/01/03 17:35:45;;;;;;;;;23.40;21.40;;;;;;;;5190908;28;8883;-68
2023/01/03 17:38:16;;;;;;;;;7.00;6.40;;;;;;;;5207294;28;8856;-68
2023/01/03 17:40:51;;;;;;;;;20.40;19.00;;;;;;;;5224213;28;8780;-68
2023/01/03 17:43:23;;;;;;;;;16.80;15.20;;;;;;;;5208284;28;8778;-68
2023/01/03 17:49:24;;;;;;;;;21.00;20.60;;;;;;;;5208721;28;8816;-69
2023/01/03 17:51:57;;;;;;;;;28.20;25.60;;;;;;;;5208337;28;8816;-68
2023/01/03 17:54:29;;;;;;;;;25.80;25.60;;;;;;;;5208528;28;8914;-69
2023/01/03 17:57:01;;;;;;;;;23.40;22.80;;;;;;;;5208251;28;8776;-67
2023/01/03 17:59:32;;;;;;;;;26.40;25.40;;;;;;;;5207932;28;8784;-69
2023/01/03 18:02:12;;;;;;;;;22.40;21.40;;;;;;;;5207846;28;8784;-68